createdAt,value
2022-12-25T00:00:21.002Z,99203.47
2022-12-25T00:03:23.143Z,99194.75
2022-12-25T00:06:25.087Z,99201.78
2022-12-25T00:09:27.140Z,99194.97
2022-12-25T00:12:28.838Z,99193.19
2022-12-25T00:15:30.412Z,99201.41
2022-12-25T00:18:32.070Z,99193.16
2022-12-25T00:21:33.689Z,99198.59
2022-12-25T00:24:35.360Z,99196.38
2022-12-25T00:27:39.886Z,99187.31
2022-12-25T00:30:41.483Z,99185.41
2022-12-25T00:33:45.544Z,99203.19
2022-12-25T00:36:50.729Z,99195.91
2022-12-25T00:39:52.301Z,99193.19
2022-12-25T00:42:53.885Z,99192.56
2022-12-25T00:45:57.814Z,99196.19
2022-12-25T00:49:00.529Z,99204.09
2022-12-25T00:52:02.505Z,99193.94
2022-12-25T00:55:04.648Z,99185.06
2022-12-25T00:58:06.364Z,99186.81
2022-12-25T01:01:11.026Z,99195.38
2022-12-25T01:04:13.150Z,99207.19
2022-12-25T01:07:16.965Z,99198.03
2022-12-25T01:10:24.891Z,99195.38
2022-12-25T01:13:28.173Z,99182.84
2022-12-25T01:16:29.879Z,99188.53
2022-12-25T01:19:31.612Z,99207.09
2022-12-25T01:22:33.196Z,99199.00
2022-12-25T01:25:34.913Z,99189.81
2022-12-25T01:28:37.555Z,99199.47
2022-12-25T01:31:39.233Z,99195.38
2022-12-25T01:34:40.877Z,99186.31
2022-12-25T01:37:42.523Z,99199.59
2022-12-25T01:40:44.288Z,99197.09
2022-12-25T01:43:59.885Z,99202.31
2022-12-25T01:47:02.710Z,99202.47
2022-12-25T01:50:04.835Z,99196.91
2022-12-25T01:53:07.484Z,99197.56
2022-12-25T01:56:09.681Z,99167.84
2022-12-25T01:59:16.342Z,99163.66
2022-12-25T02:02:18.226Z,99160.47
2022-12-25T02:05:26.991Z,99174.41
2022-12-25T02:08:28.608Z,99168.72
2022-12-25T02:11:48.853Z,99173.31
2022-12-25T02:14:52.547Z,99182.38
2022-12-25T02:17:54.090Z,99176.63
2022-12-25T02:21:16.996Z,99178.19
2022-12-25T02:24:53.551Z,99175.09
2022-12-25T02:28:06.455Z,99175.53
2022-12-25T02:31:13.359Z,99174.28
2022-12-25T02:34:23.651Z,99162.50
2022-12-25T02:37:35.946Z,99159.00
2022-12-25T02:40:50.058Z,99161.31
2022-12-25T02:44:10.466Z,99148.66
2022-12-25T02:47:31.586Z,99161.00
2022-12-25T02:50:52.111Z,99177.09
2022-12-25T02:54:15.465Z,99170.59
2022-12-25T02:57:38.935Z,99165.53
2022-12-25T03:01:03.483Z,99153.22
2022-12-25T03:04:30.036Z,99152.22
2022-12-25T03:07:37.691Z,99143.78
2022-12-25T03:11:04.048Z,99134.75
2022-12-25T03:14:26.823Z,99144.66
2022-12-25T03:17:28.446Z,99146.44
2022-12-25T03:20:49.865Z,99136.34
2022-12-25T03:24:22.334Z,99140.31
2022-12-25T03:27:25.839Z,99125.34
2022-12-25T03:31:00.230Z,99124.34
2022-12-25T03:34:28.627Z,99115.72
2022-12-25T03:38:12.495Z,99119.91
2022-12-25T03:42:03.173Z,99106.47
2022-12-25T03:46:00.147Z,99100.41
2022-12-25T03:49:40.169Z,99098.63
2022-12-25T03:53:02.874Z,99090.91
2022-12-25T03:56:24.093Z,99094.47
2022-12-25T03:59:44.298Z,99079.16
2022-12-25T04:03:04.787Z,99082.56
2022-12-25T04:06:25.018Z,99076.22
2022-12-25T04:09:45.763Z,99086.84
2022-12-25T04:13:06.056Z,99081.34
2022-12-25T04:16:26.461Z,99082.47
2022-12-25T04:19:57.371Z,99090.47
2022-12-25T04:23:18.047Z,99079.16
2022-12-25T04:26:38.027Z,99064.19
2022-12-25T04:29:58.184Z,99077.25
2022-12-25T04:33:18.219Z,99081.72
2022-12-25T04:36:19.867Z,99086.69
2022-12-25T04:39:21.463Z,99076.84
2022-12-25T04:42:23.126Z,99086.09
2022-12-25T04:45:24.737Z,99085.06
2022-12-25T04:48:28.651Z,99095.09
2022-12-25T04:51:30.321Z,99090.66
2022-12-25T04:54:32.075Z,99084.53
2022-12-25T04:57:33.974Z,99090.56
2022-12-25T05:00:36.010Z,99093.59
2022-12-25T05:03:38.195Z,99077.75
2022-12-25T05:06:40.390Z,99075.38
2022-12-25T05:09:42.045Z,99068.72
2022-12-25T05:12:44.004Z,99060.16
2022-12-25T05:15:45.686Z,99062.06
2022-12-25T05:18:51.958Z,99072.72
2022-12-25T05:21:54.382Z,99051.78
2022-12-25T05:24:56.012Z,99043.53
2022-12-25T05:27:57.673Z,99053.69
2022-12-25T05:30:59.429Z,99047.03
2022-12-25T05:34:01.171Z,99042.41
2022-12-25T05:37:04.002Z,99045.13
2022-12-25T05:40:06.463Z,99011.06
2022-12-25T05:43:08.287Z,99017.56
2022-12-25T05:46:11.526Z,99014.38
2022-12-25T05:49:13.212Z,99016.13
2022-12-25T05:52:14.786Z,99027.41
2022-12-25T05:55:16.503Z,99032.81
2022-12-25T05:58:18.113Z,99021.25
2022-12-25T06:01:23.810Z,99019.97
2022-12-25T06:04:26.797Z,99020.44
2022-12-25T06:07:28.427Z,99021.25
2022-12-25T06:10:30.148Z,99023.44
2022-12-25T06:13:32.743Z,99029.97
2022-12-25T06:16:38.248Z,99021.25
2022-12-25T06:19:42.561Z,99025.69
2022-12-25T06:22:44.337Z,99012.22
2022-12-25T06:25:46.101Z,99009.34
2022-12-25T06:28:48.123Z,99003.63
2022-12-25T06:31:49.833Z,99012.34
2022-12-25T06:34:51.505Z,98999.50
2022-12-25T06:37:53.327Z,98995.56
2022-12-25T06:40:54.918Z,99006.97
2022-12-25T06:43:58.808Z,99027.75
2022-12-25T06:47:00.407Z,99046.59
2022-12-25T06:50:02.316Z,99044.88
2022-12-25T06:53:03.943Z,99037.09
2022-12-25T06:56:07.583Z,99050.09
2022-12-25T06:59:10.371Z,99036.63
2022-12-25T07:02:19.405Z,99041.84
2022-12-25T07:05:21.103Z,99035.97
2022-12-25T07:08:22.731Z,99031.22
2022-12-25T07:11:25.037Z,99023.13
2022-12-25T07:14:26.613Z,99025.69
2022-12-25T07:17:28.302Z,99018.84
2022-12-25T07:20:30.123Z,99026.63
2022-12-25T07:23:31.685Z,99018.06
2022-12-25T07:26:33.263Z,99011.56
2022-12-25T07:29:35.288Z,99011.56
2022-12-25T07:32:36.912Z,99014.72
2022-12-25T07:35:38.808Z,99005.03
2022-12-25T07:38:42.016Z,99015.63
2022-12-25T07:41:44.381Z,99002.47
2022-12-25T07:44:49.238Z,99024.97
2022-12-25T07:47:53.784Z,99022.91
2022-12-25T07:50:57.714Z,99032.56
2022-12-25T07:53:59.349Z,99026.53
2022-12-25T07:57:00.908Z,99014.53
2022-12-25T08:00:06.600Z,99018.78
2022-12-25T08:03:15.914Z,99018.50
2022-12-25T08:06:18.869Z,99035.78
2022-12-25T08:09:20.488Z,99050.25
2022-12-25T08:12:22.199Z,99053.41
2022-12-25T08:15:23.822Z,99057.84
2022-12-25T08:18:29.934Z,99049.47
2022-12-25T08:21:31.906Z,99033.91
2022-12-25T08:24:33.537Z,99014.44
2022-12-25T08:27:35.410Z,98996.53
2022-12-25T08:30:40.972Z,98995.06
2022-12-25T08:33:43.209Z,99003.50
2022-12-25T08:36:44.864Z,98995.91
2022-12-25T08:39:46.457Z,99007.13
2022-12-25T08:42:47.991Z,99009.38
2022-12-25T08:45:49.607Z,99018.72
2022-12-25T08:48:51.357Z,99013.81
2022-12-25T08:51:53.134Z,99014.59
2022-12-25T08:54:54.890Z,99017.78
2022-12-25T08:57:56.616Z,99021.25
2022-12-25T09:00:58.602Z,99026.97
2022-12-25T09:04:00.335Z,99031.69
2022-12-25T09:07:02.696Z,99058.50
2022-12-25T09:10:04.677Z,99048.03
2022-12-25T09:13:06.497Z,99052.47
2022-12-25T09:16:10.435Z,99059.13
2022-12-25T09:19:12.095Z,99060.09
2022-12-25T09:22:13.673Z,99058.66
2022-12-25T09:25:15.411Z,99060.66
2022-12-25T09:28:17.032Z,99066.72
2022-12-25T09:31:19.137Z,99059.41
2022-12-25T09:34:20.797Z,99046.44
2022-12-25T09:37:22.403Z,99041.13
2022-12-25T09:40:28.567Z,99035.50
2022-12-25T09:43:33.812Z,99029.41
2022-12-25T09:46:43.114Z,99019.25
2022-12-25T09:50:02.660Z,99023.63
2022-12-25T09:53:18.781Z,99000.50
2022-12-25T09:56:27.306Z,99001.16
2022-12-25T09:59:29.296Z,98976.56
2022-12-25T10:02:36.647Z,98968.13
2022-12-25T10:05:55.805Z,98974.22
2022-12-25T10:09:11.785Z,98979.25
2022-12-25T10:12:35.331Z,98972.47
2022-12-25T10:16:05.698Z,98963.91
2022-12-25T10:19:22.461Z,98968.56
2022-12-25T10:22:32.121Z,98968.91
2022-12-25T10:25:36.839Z,98978.16
2022-12-25T10:28:42.856Z,98982.34
2022-12-25T10:31:46.727Z,98986.06
2022-12-25T10:34:48.944Z,98974.97
2022-12-25T10:38:00.154Z,98964.22
2022-12-25T10:41:34.227Z,98966.72
2022-12-25T10:44:36.604Z,98967.28
2022-12-25T10:47:42.047Z,98957.03
2022-12-25T10:50:44.039Z,98955.53
2022-12-25T10:53:45.558Z,98977.22
2022-12-25T10:56:56.450Z,98983.75
2022-12-25T10:59:58.150Z,98971.09
2022-12-25T11:03:00.791Z,98966.13
2022-12-25T11:06:03.016Z,98967.69
2022-12-25T11:09:05.101Z,98963.94
2022-12-25T11:12:07.310Z,98947.78
2022-12-25T11:15:36.746Z,98953.78
2022-12-25T11:18:50.875Z,98931.63
2022-12-25T11:21:57.271Z,98928.69
2022-12-25T11:25:12.547Z,98914.25
2022-12-25T11:28:14.381Z,98908.09
2022-12-25T11:31:46.657Z,98903.63
2022-12-25T11:34:50.171Z,98887.03
2022-12-25T11:37:52.803Z,98882.34
2022-12-25T11:41:02.698Z,98877.59
2022-12-25T11:44:19.368Z,98888.88
2022-12-25T11:47:40.780Z,98889.09
2022-12-25T11:50:49.854Z,98859.91
2022-12-25T11:53:55.435Z,98878.41
2022-12-25T11:56:59.697Z,98860.25
2022-12-25T12:00:15.737Z,98873.72
2022-12-25T12:03:37.244Z,98871.38
2022-12-25T12:06:52.517Z,98871.28
2022-12-25T12:10:26.659Z,98869.78
2022-12-25T12:13:40.736Z,98876.72
2022-12-25T12:16:42.486Z,98867.94
2022-12-25T12:19:44.436Z,98862.50
2022-12-25T12:22:50.853Z,98852.34
2022-12-25T12:25:53.055Z,98858.53
2022-12-25T12:28:59.188Z,98844.81
2022-12-25T12:32:04.961Z,98865.78
2022-12-25T12:35:20.486Z,98850.78
2022-12-25T12:38:24.193Z,98834.19
2022-12-25T12:41:46.498Z,98837.25
2022-12-25T12:44:50.306Z,98824.91
2022-12-25T12:47:53.264Z,98832.94
2022-12-25T12:51:10.694Z,98832.94
2022-12-25T12:54:22.643Z,98842.34
2022-12-25T12:57:27.149Z,98850.78
2022-12-25T13:00:44.572Z,98844.78
2022-12-25T13:04:11.019Z,98839.25
2022-12-25T13:07:20.105Z,98832.84
2022-12-25T13:10:38.434Z,98867.63
2022-12-25T13:13:42.812Z,98846.31
2022-12-25T13:16:47.366Z,98859.94
2022-12-25T13:19:54.763Z,98850.78
2022-12-25T13:22:56.364Z,98856.78
2022-12-25T13:26:14.330Z,98866.94
2022-12-25T13:29:38.686Z,98840.38
2022-12-25T13:32:41.948Z,98842.00
2022-12-25T13:35:44.015Z,98834.91
2022-12-25T13:38:48.176Z,98845.47
2022-12-25T13:42:09.333Z,98849.84
2022-12-25T13:45:13.953Z,98853.94
2022-12-25T13:48:16.196Z,98858.84
2022-12-25T13:51:20.541Z,98842.47
2022-12-25T13:54:22.132Z,98858.91
2022-12-25T13:57:31.258Z,98851.97
2022-12-25T14:00:38.783Z,98847.25
2022-12-25T14:03:43.975Z,98845.69
2022-12-25T14:06:45.926Z,98838.13
2022-12-25T14:09:51.091Z,98840.75
2022-12-25T14:12:56.056Z,98858.44
2022-12-25T14:15:58.030Z,98854.28
2022-12-25T14:19:02.457Z,98844.91
2022-12-25T14:22:13.806Z,98843.88
2022-12-25T14:25:16.090Z,98843.31
2022-12-25T14:28:25.530Z,98854.59
2022-12-25T14:31:29.323Z,98842.25
2022-12-25T14:34:32.449Z,98840.06
2022-12-25T14:37:34.322Z,98828.81
2022-12-25T14:40:36.110Z,98824.28
2022-12-25T14:43:37.793Z,98848.22
2022-12-25T14:46:39.541Z,98842.34
2022-12-25T14:49:41.694Z,98830.78
2022-12-25T14:52:45.048Z,98839.09
2022-12-25T14:55:49.297Z,98839.22
2022-12-25T14:58:53.740Z,98851.59
2022-12-25T15:01:58.857Z,98843.88
2022-12-25T15:05:00.620Z,98868.63
2022-12-25T15:08:02.181Z,98877.41
2022-12-25T15:11:04.376Z,98863.63
2022-12-25T15:14:06.288Z,98873.28
2022-12-25T15:17:25.013Z,98873.97
2022-12-25T15:20:32.758Z,98872.84
2022-12-25T15:23:34.385Z,98877.28
2022-12-25T15:26:35.945Z,98890.25
2022-12-25T15:30:08.507Z,98892.72
2022-12-25T15:32:59.062Z,98902.81
2022-12-25T15:36:00.793Z,98890.13
2022-12-25T15:39:02.382Z,98907.47
2022-12-25T15:42:12.932Z,98897.88
2022-12-25T15:45:22.251Z,98894.28
2022-12-25T15:48:23.813Z,98888.28
2022-12-25T15:51:25.834Z,98916.69
2022-12-25T15:54:27.500Z,98904.50
2022-12-25T15:57:30.630Z,98924.41
2022-12-25T16:00:32.285Z,98920.69
2022-12-25T16:03:34.002Z,98903.44
2022-12-25T16:06:35.664Z,98921.91
2022-12-25T16:09:37.614Z,98929.88
2022-12-25T16:12:39.365Z,98933.34
2022-12-25T16:15:41.429Z,98918.81
2022-12-25T16:18:47.337Z,98921.59
2022-12-25T16:21:52.653Z,98934.94
2022-12-25T16:25:05.663Z,98910.22
2022-12-25T16:28:11.980Z,98914.47
2022-12-25T16:31:14.183Z,98923.81
2022-12-25T16:34:20.718Z,98900.28
2022-12-25T16:37:22.789Z,98898.56
2022-12-25T16:40:24.954Z,98857.00
2022-12-25T16:43:27.395Z,98878.13
2022-12-25T16:46:31.999Z,98925.41
2022-12-25T16:49:33.845Z,98884.84
2022-12-25T16:52:36.163Z,98867.84
2022-12-25T16:55:38.584Z,98883.72
2022-12-25T16:58:41.765Z,98887.66
2022-12-25T17:01:43.667Z,98908.59
2022-12-25T17:04:46.153Z,98930.56
2022-12-25T17:07:48.106Z,98911.84
2022-12-25T17:10:50.045Z,98914.56
2022-12-25T17:13:52.234Z,98908.81
2022-12-25T17:16:56.963Z,98957.59
2022-12-25T17:19:58.793Z,98919.56
2022-12-25T17:23:00.536Z,98933.13
2022-12-25T17:26:02.417Z,98940.56
2022-12-25T17:29:04.525Z,98893.06
2022-12-25T17:32:07.991Z,98938.94
2022-12-25T17:35:14.626Z,98934.00
2022-12-25T17:38:16.237Z,98926.72
2022-12-25T17:41:19.202Z,98911.25
2022-12-25T17:44:21.158Z,98962.00
2022-12-25T17:47:22.778Z,98946.16
2022-12-25T17:50:25.701Z,98948.59
2022-12-25T17:53:27.836Z,98966.00
2022-12-25T17:56:29.525Z,98969.97
2022-12-25T17:59:31.157Z,98971.34
2022-12-25T18:02:33.100Z,98986.25
2022-12-25T18:05:37.984Z,98992.72
2022-12-25T18:08:40.587Z,98983.59
2022-12-25T18:11:43.883Z,98999.00
2022-12-25T18:14:45.722Z,98991.69
2022-12-25T18:17:47.356Z,99007.28
2022-12-25T18:20:49.089Z,98996.47
2022-12-25T18:23:50.921Z,98994.91
2022-12-25T18:26:52.523Z,99004.19
2022-12-25T18:29:54.136Z,98994.06
2022-12-25T18:32:55.775Z,98993.53
2022-12-25T18:35:59.481Z,99014.03
2022-12-25T18:39:02.007Z,98989.59
2022-12-25T18:42:22.347Z,98999.38
2022-12-25T18:45:24.020Z,99004.31
2022-12-25T18:48:26.274Z,98999.66
2022-12-25T18:51:34.896Z,98989.31
2022-12-25T18:54:38.429Z,98994.50
2022-12-25T18:57:40.978Z,99001.84
2022-12-25T19:00:42.818Z,98993.25
2022-12-25T19:03:45.973Z,98998.38
2022-12-25T19:06:49.503Z,99006.94
2022-12-25T19:09:51.370Z,98980.22
2022-12-25T19:12:53.167Z,99011.91
2022-12-25T19:15:59.726Z,99000.91
2022-12-25T19:19:02.353Z,99013.19
2022-12-25T19:22:03.993Z,99004.69
2022-12-25T19:25:06.284Z,99000.91
2022-12-25T19:28:07.928Z,99000.84
2022-12-25T19:31:10.797Z,99000.19
2022-12-25T19:34:12.837Z,98990.16
2022-12-25T19:37:15.123Z,98990.00
2022-12-25T19:40:16.960Z,98987.28
2022-12-25T19:43:18.683Z,98973.88
2022-12-25T19:46:24.573Z,98976.59
2022-12-25T19:49:26.415Z,98967.94
2022-12-25T19:52:28.092Z,98979.22
2022-12-25T19:55:31.962Z,98978.03
2022-12-25T19:58:33.613Z,98990.19
2022-12-25T20:01:35.458Z,98970.78
2022-12-25T20:04:37.257Z,98981.97
2022-12-25T20:07:38.839Z,98976.22
2022-12-25T20:10:45.267Z,98989.84
2022-12-25T20:13:47.144Z,98992.56
2022-12-25T20:16:48.786Z,98995.78
2022-12-25T20:19:50.438Z,99012.47
2022-12-25T20:22:52.028Z,99011.66
2022-12-25T20:25:54.130Z,99012.16
2022-12-25T20:28:56.242Z,99007.63
2022-12-25T20:31:57.883Z,99016.28
2022-12-25T20:34:59.543Z,99006.72
2022-12-25T20:38:01.155Z,99018.91
2022-12-25T20:44:28.515Z,99012.31
2022-12-25T20:47:30.165Z,99007.47
2022-12-25T20:50:32.454Z,99016.69
2022-12-25T20:53:34.116Z,99016.06
2022-12-25T20:56:36.491Z,99027.72
2022-12-25T20:59:38.267Z,99017.69
2022-12-25T21:02:40.071Z,99021.19
2022-12-25T21:05:49.894Z,99015.19
2022-12-25T21:08:51.835Z,99003.59
2022-12-25T21:11:53.498Z,99016.47
2022-12-25T21:14:55.141Z,98999.28
2022-12-25T21:17:56.924Z,99007.81
2022-12-25T21:20:59.472Z,99004.16
2022-12-25T21:24:01.074Z,99015.19
2022-12-25T21:27:02.698Z,99015.84
2022-12-25T21:30:14.776Z,99006.81
2022-12-25T21:33:36.115Z,99013.66
2022-12-25T21:36:37.994Z,99012.19
2022-12-25T21:39:39.701Z,99021.75
2022-12-25T21:42:41.376Z,99013.84
2022-12-25T21:45:43.085Z,99009.56
2022-12-25T21:48:45.370Z,99020.44
2022-12-25T21:52:05.567Z,99021.00
2022-12-25T21:55:07.857Z,99025.19
2022-12-25T21:58:09.696Z,99022.44
2022-12-25T22:01:11.835Z,99018.13
2022-12-25T22:04:15.888Z,99027.63
2022-12-25T22:07:17.595Z,99033.69
2022-12-25T22:10:19.230Z,99036.25
2022-12-25T22:13:39.615Z,99032.75
2022-12-25T22:16:59.969Z,99053.63
2022-12-25T22:20:01.876Z,99060.94
2022-12-25T22:23:04.233Z,99077.25
2022-12-25T22:26:06.037Z,99070.50
2022-12-25T22:29:07.681Z,99074.25
2022-12-25T22:32:10.470Z,99071.84
2022-12-25T22:35:13.437Z,99073.91
2022-12-25T22:38:15.031Z,99070.56
2022-12-25T22:41:16.681Z,99074.69
2022-12-25T22:44:18.635Z,99065.75
2022-12-25T22:47:20.466Z,99060.91
2022-12-25T22:50:22.092Z,99070.56
2022-12-25T22:53:23.677Z,99076.09
2022-12-25T22:56:25.327Z,99084.34
2022-12-25T22:59:27.144Z,99087.59
2022-12-25T23:02:29.046Z,99105.97
2022-12-25T23:05:30.922Z,99105.72
2022-12-25T23:08:32.611Z,99105.81
2022-12-25T23:11:35.731Z,99116.41
2022-12-25T23:14:41.594Z,99105.94
2022-12-25T23:18:01.765Z,99106.66
2022-12-25T23:21:23.283Z,99107.41
2022-12-25T23:24:44.041Z,99114.53
2022-12-25T23:27:45.803Z,99092.19
2022-12-25T23:30:47.539Z,99114.00
2022-12-25T23:33:49.097Z,99132.31
2022-12-25T23:36:50.725Z,99135.31
2022-12-25T23:39:52.389Z,99130.44
2022-12-25T23:42:53.997Z,99122.75
2022-12-25T23:45:55.702Z,99128.88
2022-12-25T23:48:57.483Z,99118.22
2022-12-25T23:51:59.283Z,99131.09
2022-12-25T23:55:00.940Z,99126.59
2022-12-25T23:58:02.604Z,99118.66
